createdAt,value
2022-08-23T00:01:52.213Z,17.08
2022-08-23T00:04:34.715Z,16.99
2022-08-23T00:07:05.339Z,17.01
2022-08-23T00:09:33.975Z,16.97
2022-08-23T00:12:17.954Z,16.96
2022-08-23T00:14:50.308Z,16.96
2022-08-23T00:17:33.808Z,16.96
2022-08-23T00:20:09.602Z,16.93
2022-08-23T00:22:40.658Z,16.93
2022-08-23T00:25:11.288Z,16.95
2022-08-23T00:27:40.180Z,16.90
2022-08-23T00:30:10.897Z,16.89
2022-08-23T00:32:41.143Z,16.90
2022-08-23T00:35:14.312Z,16.93
2022-08-23T00:38:32.072Z,16.93
2022-08-23T00:40:52.100Z,16.92
2022-08-23T00:43:48.125Z,16.91
2022-08-23T00:46:57.862Z,16.93
2022-08-23T00:49:26.675Z,16.90
2022-08-23T00:52:09.775Z,16.82
2022-08-23T00:54:41.370Z,16.76
2022-08-23T00:57:13.713Z,16.70
2022-08-23T00:59:42.139Z,16.70
2022-08-23T01:02:10.501Z,16.67
2022-08-23T01:04:47.172Z,16.65
2022-08-23T01:07:27.895Z,16.62
2022-08-23T01:10:02.536Z,16.57
2022-08-23T01:12:37.824Z,16.54
2022-08-23T01:15:31.759Z,16.52
2022-08-23T01:18:21.705Z,16.50
2022-08-23T01:21:02.874Z,16.48
2022-08-23T01:23:41.437Z,16.52
2022-08-23T01:26:13.468Z,16.42
2022-08-23T01:28:43.999Z,16.42
2022-08-23T01:31:16.431Z,16.36
2022-08-23T01:33:50.214Z,16.32
2022-08-23T01:36:18.650Z,16.30
2022-08-23T01:38:47.133Z,16.27
2022-08-23T01:41:15.538Z,16.27
2022-08-23T01:43:43.951Z,16.23
2022-08-23T01:46:18.147Z,16.23
2022-08-23T01:48:48.702Z,16.24
2022-08-23T01:51:19.448Z,16.24
2022-08-23T01:53:47.934Z,16.23
2022-08-23T01:56:38.347Z,16.23
2022-08-23T01:59:12.698Z,16.21
2022-08-23T02:01:48.247Z,16.20
2022-08-23T02:04:17.254Z,16.17
2022-08-23T02:06:45.967Z,16.21
2022-08-23T02:09:18.383Z,16.24
2022-08-23T02:11:48.845Z,16.25
2022-08-23T02:14:19.810Z,16.27
2022-08-23T02:17:02.933Z,16.25
2022-08-23T02:19:36.620Z,16.25
2022-08-23T02:22:06.839Z,16.29
2022-08-23T02:24:35.732Z,16.30
2022-08-23T02:27:05.323Z,16.32
2022-08-23T02:29:39.253Z,16.34
2022-08-23T02:32:12.702Z,16.37
2022-08-23T02:34:42.804Z,16.36
2022-08-23T02:37:13.674Z,16.39
2022-08-23T02:39:42.840Z,16.40
2022-08-23T02:42:11.914Z,16.38
2022-08-23T02:44:41.909Z,16.41
2022-08-23T02:47:12.155Z,16.44
2022-08-23T02:49:42.677Z,16.46
2022-08-23T02:52:11.112Z,16.45
2022-08-23T02:54:39.716Z,16.40
2022-08-23T02:57:09.459Z,16.39
2022-08-23T02:59:37.618Z,16.38
2022-08-23T03:02:06.934Z,16.36
2022-08-23T03:04:38.642Z,16.35
2022-08-23T03:07:07.122Z,16.35
2022-08-23T03:09:36.086Z,16.30
2022-08-23T03:12:05.278Z,16.25
2022-08-23T03:14:35.341Z,16.21
2022-08-23T03:17:07.795Z,16.17
2022-08-23T03:19:35.924Z,16.13
2022-08-23T03:22:04.080Z,16.12
2022-08-23T03:24:33.498Z,16.10
2022-08-23T03:27:02.594Z,16.10
2022-08-23T03:29:32.157Z,16.11
2022-08-23T03:32:04.159Z,16.09
2022-08-23T03:34:36.254Z,16.12
2022-08-23T03:37:07.134Z,16.12
2022-08-23T03:39:35.360Z,16.11
2022-08-23T03:42:03.680Z,16.08
2022-08-23T03:44:35.530Z,16.11
2022-08-23T03:47:06.049Z,16.10
2022-08-23T03:49:34.713Z,16.09
2022-08-23T03:52:05.956Z,16.11
2022-08-23T03:54:34.748Z,16.12
2022-08-23T03:57:07.428Z,16.13
2022-08-23T03:59:39.734Z,16.13
2022-08-23T04:02:11.270Z,16.20
2022-08-23T04:04:39.930Z,16.25
2022-08-23T04:07:36.296Z,16.24
2022-08-23T04:10:06.698Z,16.28
2022-08-23T04:12:37.367Z,16.27
2022-08-23T04:15:07.084Z,16.29
2022-08-23T04:17:36.722Z,16.29
2022-08-23T04:20:06.330Z,16.29
2022-08-23T04:22:37.839Z,16.33
2022-08-23T04:25:29.936Z,16.32
2022-08-23T04:27:55.098Z,16.39
2022-08-23T04:30:23.549Z,16.36
2022-08-23T04:32:54.491Z,16.39
2022-08-23T04:35:25.560Z,16.43
2022-08-23T04:37:55.171Z,16.49
2022-08-23T04:40:42.137Z,16.51
2022-08-23T04:43:10.961Z,16.56
2022-08-23T04:45:41.143Z,16.59
2022-08-23T04:48:13.956Z,16.62
2022-08-23T04:50:43.159Z,16.71
2022-08-23T04:53:17.868Z,16.74
2022-08-23T04:56:02.851Z,16.80
2022-08-23T04:58:32.870Z,16.85
2022-08-23T05:01:07.949Z,16.92
2022-08-23T05:03:37.366Z,16.99
2022-08-23T05:06:06.183Z,17.11
2022-08-23T05:08:40.513Z,17.21
2022-08-23T05:11:11.812Z,17.32
2022-08-23T05:13:42.462Z,17.44
2022-08-23T05:16:30.778Z,17.49
2022-08-23T05:19:03.880Z,17.65
2022-08-23T05:21:34.088Z,17.73
2022-08-23T05:24:03.778Z,17.78
2022-08-23T05:26:32.430Z,17.88
2022-08-23T05:29:00.874Z,17.96
2022-08-23T05:31:37.585Z,18.04
2022-08-23T05:34:05.870Z,18.13
2022-08-23T05:36:47.644Z,18.26
2022-08-23T05:39:36.013Z,18.37
2022-08-23T05:42:12.393Z,18.41
2022-08-23T05:44:41.190Z,18.46
2022-08-23T05:47:15.631Z,18.61
2022-08-23T05:50:02.852Z,18.67
2022-08-23T05:52:40.758Z,18.73
2022-08-23T05:55:16.800Z,18.76
2022-08-23T05:57:57.589Z,18.83
2022-08-23T06:00:38.061Z,18.86
2022-08-23T06:03:09.548Z,18.90
2022-08-23T06:05:42.356Z,19.01
2022-08-23T06:08:12.343Z,19.06
2022-08-23T06:10:42.440Z,19.21
2022-08-23T06:13:22.723Z,19.40
2022-08-23T06:15:50.900Z,19.56
2022-08-23T06:18:23.830Z,19.61
2022-08-23T06:21:01.669Z,19.75
2022-08-23T06:23:41.838Z,19.86
2022-08-23T06:26:17.730Z,19.96
2022-08-23T06:28:50.205Z,20.06
2022-08-23T06:31:41.024Z,20.25
2022-08-23T06:34:27.263Z,20.34
2022-08-23T06:37:14.890Z,20.35
2022-08-23T06:40:08.475Z,20.53
2022-08-23T06:43:07.485Z,20.65
2022-08-23T06:45:58.127Z,20.74
2022-08-23T06:48:29.344Z,20.79
2022-08-23T06:51:03.410Z,20.84
2022-08-23T06:54:04.669Z,20.86
2022-08-23T06:57:00.737Z,20.92
2022-08-23T06:59:37.464Z,21.00
2022-08-23T07:02:17.443Z,21.02
2022-08-23T07:05:04.828Z,21.02
2022-08-23T07:07:53.136Z,21.11
2022-08-23T07:10:21.712Z,21.27
2022-08-23T07:12:50.584Z,21.44
2022-08-23T07:15:23.239Z,21.48
2022-08-23T07:17:53.992Z,21.60
2022-08-23T07:20:22.203Z,21.69
2022-08-23T07:22:50.758Z,21.88
2022-08-23T07:25:21.654Z,21.97
2022-08-23T07:27:54.630Z,22.03
2022-08-23T07:30:23.858Z,22.14
2022-08-23T07:32:54.671Z,22.22
2022-08-23T07:35:25.990Z,22.15
2022-08-23T07:37:58.425Z,22.24
2022-08-23T07:40:33.518Z,22.33
2022-08-23T07:43:05.686Z,22.42
2022-08-23T07:45:41.664Z,22.52
2022-08-23T07:48:14.488Z,22.50
2022-08-23T07:51:14.016Z,22.47
2022-08-23T07:53:46.042Z,22.61
2022-08-23T07:56:20.934Z,22.74
2022-08-23T07:59:10.690Z,22.76
2022-08-23T08:01:53.696Z,22.97
2022-08-23T08:04:23.677Z,23.05
2022-08-23T08:07:17.206Z,22.94
2022-08-23T08:09:44.775Z,23.09
2022-08-23T08:12:15.691Z,23.29
2022-08-23T08:14:49.786Z,23.47
2022-08-23T08:17:24.191Z,23.41
2022-08-23T08:20:15.361Z,23.64
2022-08-23T08:23:18.848Z,23.80
2022-08-23T08:26:27.775Z,23.97
2022-08-23T08:29:00.348Z,24.03
2022-08-23T08:31:30.111Z,23.91
2022-08-23T08:33:58.486Z,24.11
2022-08-23T08:36:39.926Z,24.12
2022-08-23T08:39:15.975Z,24.16
2022-08-23T08:42:05.540Z,24.01
2022-08-23T08:44:54.474Z,24.09
2022-08-23T08:47:46.655Z,24.29
2022-08-23T08:50:19.850Z,24.56
2022-08-23T08:52:55.932Z,24.57
2022-08-23T08:55:43.268Z,24.64
2022-08-23T08:58:22.910Z,24.69
2022-08-23T09:00:56.553Z,24.88
2022-08-23T09:03:36.763Z,24.70
2022-08-23T09:06:14.749Z,24.94
2022-08-23T09:08:58.559Z,25.16
2022-08-23T09:11:57.791Z,25.50
2022-08-23T09:15:24.343Z,25.64
2022-08-23T09:18:09.783Z,25.62
2022-08-23T09:20:44.784Z,25.51
2022-08-23T09:23:22.069Z,25.66
2022-08-23T09:26:02.614Z,26.03
2022-08-23T09:28:46.344Z,26.22
2022-08-23T09:31:39.223Z,26.51
2022-08-23T09:34:18.467Z,26.53
2022-08-23T09:37:27.524Z,26.69
2022-08-23T09:40:20.280Z,26.86
2022-08-23T09:43:04.972Z,27.12
2022-08-23T09:45:38.496Z,27.16
2022-08-23T09:48:12.902Z,27.02
2022-08-23T09:51:01.316Z,27.07
2022-08-23T09:53:30.362Z,27.41
2022-08-23T09:56:28.594Z,27.37
2022-08-23T09:58:59.035Z,27.43
2022-08-23T10:01:47.666Z,27.65
2022-08-23T10:04:32.218Z,27.64
2022-08-23T10:07:42.884Z,27.98
2022-08-23T10:10:48.043Z,27.66
2022-08-23T10:13:22.477Z,27.74
2022-08-23T10:16:06.213Z,27.94
2022-08-23T10:18:56.638Z,28.15
2022-08-23T10:21:44.953Z,28.11
2022-08-23T10:24:28.331Z,28.41
2022-08-23T10:27:31.240Z,28.71
2022-08-23T10:30:08.625Z,28.55
2022-08-23T10:33:02.268Z,28.56
2022-08-23T10:35:45.404Z,28.73
2022-08-23T10:38:27.285Z,28.94
2022-08-23T10:41:06.360Z,28.60
2022-08-23T10:43:37.565Z,28.77
2022-08-23T10:46:08.706Z,29.25
2022-08-23T10:48:54.766Z,29.43
2022-08-23T10:51:47.245Z,29.10
2022-08-23T10:54:46.910Z,29.38
2022-08-23T10:57:22.355Z,29.17
2022-08-23T10:59:53.168Z,29.51
2022-08-23T11:02:45.181Z,29.92
2022-08-23T11:05:30.502Z,29.79
2022-08-23T11:08:06.115Z,30.00
2022-08-23T11:10:38.099Z,30.20
2022-08-23T11:13:18.995Z,30.55
2022-08-23T11:16:23.494Z,30.67
2022-08-23T11:18:53.933Z,30.64
2022-08-23T11:21:32.045Z,30.91
2022-08-23T11:24:16.593Z,30.78
2022-08-23T11:26:47.784Z,30.96
2022-08-23T11:29:23.952Z,31.27
2022-08-23T11:32:20.093Z,31.28
2022-08-23T11:35:09.080Z,30.97
2022-08-23T11:38:09.354Z,30.95
2022-08-23T11:41:18.140Z,31.15
2022-08-23T11:44:03.769Z,31.19
2022-08-23T11:46:50.147Z,31.10
2022-08-23T11:49:31.122Z,31.39
2022-08-23T11:52:18.385Z,31.90
2022-08-23T11:55:11.073Z,31.82
2022-08-23T11:58:01.773Z,31.85
2022-08-23T12:01:10.431Z,32.10
2022-08-23T12:03:54.358Z,32.29
2022-08-23T12:06:22.642Z,33.02
2022-08-23T12:09:01.714Z,32.54
2022-08-23T12:12:02.519Z,32.42
2022-08-23T12:14:30.799Z,32.19
2022-08-23T12:17:04.119Z,31.91
2022-08-23T12:19:59.963Z,31.77
2022-08-23T12:22:34.512Z,32.20
2022-08-23T12:25:08.852Z,32.29
2022-08-23T12:27:52.571Z,32.82
2022-08-23T12:30:26.324Z,33.20
2022-08-23T12:33:13.819Z,32.84
2022-08-23T12:35:44.651Z,33.46
2022-08-23T12:38:38.169Z,33.29
2022-08-23T12:41:33.554Z,33.31
2022-08-23T12:44:08.017Z,33.42
2022-08-23T12:46:42.495Z,34.04
2022-08-23T12:49:31.733Z,34.00
2022-08-23T12:52:08.970Z,34.06
2022-08-23T12:54:46.565Z,33.76
2022-08-23T12:57:19.459Z,33.84
2022-08-23T13:00:16.694Z,33.94
2022-08-23T13:03:01.456Z,34.18
2022-08-23T13:05:56.720Z,34.47
2022-08-23T13:08:39.756Z,35.07
2022-08-23T13:11:12.737Z,34.89
2022-08-23T13:13:44.254Z,34.77
2022-08-23T13:16:27.671Z,34.85
2022-08-23T13:19:15.781Z,35.12
2022-08-23T13:21:45.376Z,34.78
2022-08-23T13:24:37.879Z,34.87
2022-08-23T13:27:17.589Z,35.09
2022-08-23T13:29:57.274Z,35.20
2022-08-23T13:32:49.088Z,35.23
2022-08-23T13:35:36.676Z,35.58
2022-08-23T13:38:21.027Z,35.68
2022-08-23T13:40:57.743Z,35.82
2022-08-23T13:43:34.606Z,35.74
2022-08-23T13:46:22.601Z,35.66
2022-08-23T13:49:37.904Z,35.98
2022-08-23T13:53:12.989Z,36.11
2022-08-23T13:55:19.810Z,35.86
2022-08-23T13:57:49.702Z,36.06
2022-08-23T14:00:22.705Z,36.01
2022-08-23T14:02:53.115Z,35.55
2022-08-23T14:05:22.956Z,35.26
2022-08-23T14:07:53.418Z,34.09
2022-08-23T14:10:23.334Z,33.32
2022-08-23T14:12:54.754Z,33.09
2022-08-23T14:15:54.679Z,32.80
2022-08-23T14:18:13.542Z,32.23
2022-08-23T14:20:46.191Z,31.89
2022-08-23T14:23:14.691Z,31.43
2022-08-23T14:25:43.686Z,30.70
2022-08-23T14:28:12.083Z,30.61
2022-08-23T14:30:40.422Z,30.49
2022-08-23T14:33:08.665Z,30.13
2022-08-23T14:35:37.097Z,30.00
2022-08-23T14:38:05.427Z,29.88
2022-08-23T14:40:37.710Z,29.64
2022-08-23T14:43:06.974Z,29.40
2022-08-23T14:45:35.303Z,29.31
2022-08-23T14:48:04.555Z,29.24
2022-08-23T14:50:33.275Z,29.22
2022-08-23T14:53:05.585Z,29.14
2022-08-23T14:55:34.129Z,29.08
2022-08-23T14:58:04.227Z,28.99
2022-08-23T15:00:35.551Z,28.96
2022-08-23T15:03:09.768Z,28.94
2022-08-23T15:05:40.213Z,28.72
2022-08-23T15:08:10.742Z,28.68
2022-08-23T15:12:57.796Z,28.54
2022-08-23T15:13:33.884Z,28.15
2022-08-23T15:16:08.004Z,27.91
2022-08-23T15:18:38.508Z,27.54
2022-08-23T15:21:07.385Z,27.19
2022-08-23T15:23:35.904Z,26.95
2022-08-23T15:26:04.670Z,27.00
2022-08-23T15:28:38.372Z,26.93
2022-08-23T15:31:06.803Z,26.41
2022-08-23T15:33:35.560Z,25.70
2022-08-23T15:36:04.222Z,25.36
2022-08-23T15:38:36.315Z,24.82
2022-08-23T15:41:04.789Z,24.27
2022-08-23T15:43:35.199Z,23.77
2022-08-23T15:46:07.119Z,22.62
2022-08-23T15:48:44.870Z,22.31
2022-08-23T15:51:17.914Z,21.85
2022-08-23T15:53:46.449Z,21.46
2022-08-23T15:56:21.304Z,20.88
2022-08-23T15:58:49.905Z,20.12
2022-08-23T16:01:20.772Z,19.39
2022-08-23T16:03:52.500Z,19.02
2022-08-23T16:06:20.754Z,18.79
2022-08-23T16:08:52.514Z,18.65
2022-08-23T16:11:22.086Z,18.55
2022-08-23T16:13:55.143Z,18.47
2022-08-23T16:16:32.415Z,18.46
2022-08-23T16:19:01.105Z,18.49
2022-08-23T16:21:30.890Z,18.52
2022-08-23T16:23:59.832Z,18.52
2022-08-23T16:26:34.811Z,18.47
2022-08-23T16:29:10.385Z,18.41
2022-08-23T16:31:41.119Z,18.35
2022-08-23T16:34:14.929Z,18.30
2022-08-23T16:36:47.246Z,18.17
2022-08-23T16:39:17.073Z,18.03
2022-08-23T16:41:45.660Z,17.93
2022-08-23T16:44:14.027Z,17.83
2022-08-23T16:46:44.099Z,17.75
2022-08-23T16:49:15.520Z,17.66
2022-08-23T16:51:43.741Z,17.56
2022-08-23T16:54:12.331Z,17.45
2022-08-23T16:56:41.638Z,17.39
2022-08-23T16:59:12.886Z,17.39
2022-08-23T17:01:58.884Z,17.46
2022-08-23T17:04:30.515Z,17.50
2022-08-23T17:07:00.386Z,17.53
2022-08-23T17:09:30.514Z,17.61
2022-08-23T17:11:58.954Z,17.66
2022-08-23T17:14:27.418Z,17.68
2022-08-23T17:16:55.622Z,17.67
2022-08-23T17:19:23.945Z,17.67
2022-08-23T17:21:54.287Z,17.69
2022-08-23T17:24:24.557Z,17.68
2022-08-23T17:26:52.567Z,17.69
2022-08-23T17:29:20.594Z,17.70
2022-08-23T17:31:49.303Z,17.72
2022-08-23T17:34:17.914Z,17.70
2022-08-23T17:36:52.543Z,17.69
2022-08-23T17:39:27.459Z,17.74
2022-08-23T17:41:56.393Z,17.76
2022-08-23T17:44:25.179Z,17.79
2022-08-23T17:46:53.465Z,17.78
2022-08-23T17:49:21.798Z,17.82
2022-08-23T17:51:49.983Z,17.80
2022-08-23T17:54:18.577Z,17.81
2022-08-23T17:56:50.643Z,17.88
2022-08-23T17:59:20.305Z,17.89
2022-08-23T18:01:49.501Z,17.90
2022-08-23T18:04:18.561Z,17.94
2022-08-23T18:06:47.029Z,18.01
2022-08-23T18:09:16.175Z,18.06
2022-08-23T18:11:44.641Z,18.13
2022-08-23T18:14:13.191Z,18.14
2022-08-23T18:16:44.056Z,18.25
2022-08-23T18:19:15.738Z,18.30
2022-08-23T18:21:44.654Z,18.32
2022-08-23T18:24:13.648Z,18.30
2022-08-23T18:27:01.050Z,18.24
2022-08-23T18:29:33.116Z,18.18
2022-08-23T18:32:01.300Z,18.12
2022-08-23T18:34:30.348Z,18.08
2022-08-23T18:36:59.522Z,18.04
2022-08-23T18:39:31.807Z,18.00
2022-08-23T18:42:02.716Z,18.03
2022-08-23T18:44:31.903Z,17.94
2022-08-23T18:47:02.207Z,17.90
2022-08-23T18:49:32.278Z,17.86
2022-08-23T18:52:01.330Z,17.87
2022-08-23T18:54:33.544Z,17.85
2022-08-23T18:57:03.707Z,17.88
2022-08-23T18:59:32.853Z,17.94
2022-08-23T19:02:01.443Z,17.99
2022-08-23T19:04:31.182Z,18.02
2022-08-23T19:06:59.747Z,18.06
2022-08-23T19:09:28.141Z,18.11
2022-08-23T19:11:56.847Z,18.17
2022-08-23T19:14:24.857Z,18.21
2022-08-23T19:16:53.207Z,18.25
2022-08-23T19:19:22.871Z,18.28
2022-08-23T19:21:50.978Z,18.30
2022-08-23T19:24:19.162Z,18.25
2022-08-23T19:26:50.042Z,18.16
2022-08-23T19:29:20.680Z,18.17
2022-08-23T19:31:50.373Z,18.11
2022-08-23T19:34:20.230Z,18.14
2022-08-23T19:36:56.828Z,18.06
2022-08-23T19:39:30.225Z,17.91
2022-08-23T19:41:58.400Z,17.73
2022-08-23T19:44:26.904Z,17.64
2022-08-23T19:46:56.184Z,17.62
2022-08-23T19:49:24.763Z,17.59
2022-08-23T19:51:53.127Z,17.57
2022-08-23T19:54:21.329Z,17.58
2022-08-23T19:56:57.766Z,17.54
2022-08-23T19:59:29.576Z,17.49
2022-08-23T20:01:59.464Z,17.48
2022-08-23T20:04:29.827Z,17.45
2022-08-23T20:06:59.886Z,17.39
2022-08-23T20:09:31.687Z,17.34
2022-08-23T20:12:01.082Z,17.36
2022-08-23T20:14:33.811Z,17.38
2022-08-23T20:17:04.605Z,17.37
2022-08-23T20:19:33.125Z,17.40
2022-08-23T20:22:20.970Z,17.43
2022-08-23T20:24:52.166Z,17.46
2022-08-23T20:27:24.148Z,17.46
2022-08-23T20:30:01.536Z,17.47
2022-08-23T20:32:31.324Z,17.49
2022-08-23T20:35:00.835Z,17.53
2022-08-23T20:37:30.102Z,17.56
2022-08-23T20:39:58.186Z,17.57
2022-08-23T20:42:26.343Z,17.59
2022-08-23T20:44:54.588Z,17.60
2022-08-23T20:47:22.826Z,17.60
2022-08-23T20:49:51.169Z,17.64
2022-08-23T20:52:19.230Z,17.66
2022-08-23T20:54:47.239Z,17.67
2022-08-23T20:57:15.212Z,17.63
2022-08-23T20:59:44.983Z,17.71
2022-08-23T21:02:13.627Z,17.69
2022-08-23T21:04:42.059Z,17.76
2022-08-23T21:07:10.145Z,17.80
2022-08-23T21:09:38.319Z,17.73
2022-08-23T21:12:06.670Z,17.70
2022-08-23T21:14:35.204Z,17.69
2022-08-23T21:17:03.484Z,17.71
2022-08-23T21:19:31.608Z,17.69
2022-08-23T21:22:00.057Z,17.73
2022-08-23T21:24:28.556Z,17.71
2022-08-23T21:26:56.547Z,17.75
2022-08-23T21:29:29.190Z,17.77
2022-08-23T21:31:57.910Z,17.74
2022-08-23T21:34:26.505Z,17.76
2022-08-23T21:36:54.831Z,17.70
2022-08-23T21:39:22.797Z,17.73
2022-08-23T21:41:52.340Z,17.75
2022-08-23T21:44:21.751Z,17.79
2022-08-23T21:46:49.830Z,17.77
2022-08-23T21:49:20.955Z,17.76
2022-08-23T21:51:49.802Z,17.79
2022-08-23T21:54:18.493Z,17.75
2022-08-23T21:56:47.097Z,17.81
2022-08-23T21:59:17.935Z,17.80
2022-08-23T22:01:46.731Z,17.83
2022-08-23T22:04:15.982Z,17.86
2022-08-23T22:06:45.875Z,17.83
2022-08-23T22:09:18.258Z,17.80
2022-08-23T22:11:48.534Z,17.82
2022-08-23T22:14:21.647Z,17.80
2022-08-23T22:16:55.405Z,17.81
2022-08-23T22:19:24.173Z,17.79
2022-08-23T22:21:53.160Z,17.75
2022-08-23T22:24:25.798Z,17.77
2022-08-23T22:26:55.944Z,17.80
2022-08-23T22:29:24.623Z,17.82
2022-08-23T22:31:52.875Z,17.79
2022-08-23T22:34:21.003Z,17.78
2022-08-23T22:36:52.130Z,17.79
2022-08-23T22:39:22.814Z,17.80
2022-08-23T22:41:51.604Z,17.83
2022-08-23T22:44:19.687Z,17.94
2022-08-23T22:46:47.916Z,17.96
2022-08-23T22:49:16.075Z,17.94
2022-08-23T22:51:44.611Z,17.94
2022-08-23T22:54:14.515Z,17.95
2022-08-23T22:56:50.666Z,18.00
2022-08-23T22:59:21.375Z,18.05
2022-08-23T23:01:53.190Z,18.06
2022-08-23T23:04:26.630Z,18.01
2022-08-23T23:06:55.812Z,18.03
2022-08-23T23:09:24.859Z,17.98
2022-08-23T23:11:54.052Z,17.95
2022-08-23T23:14:22.987Z,17.96
2022-08-23T23:16:53.238Z,17.98
2022-08-23T23:19:40.594Z,17.99
2022-08-23T23:22:09.346Z,17.97
2022-08-23T23:24:39.806Z,17.97
2022-08-23T23:27:08.550Z,17.92
2022-08-23T23:29:36.710Z,17.91
2022-08-23T23:32:05.869Z,17.87
2022-08-23T23:34:34.891Z,17.85
2022-08-23T23:37:03.001Z,17.84
2022-08-23T23:39:31.042Z,17.87
2022-08-23T23:41:59.016Z,17.79
2022-08-23T23:44:31.198Z,17.78
2022-08-23T23:47:01.695Z,17.82
2022-08-23T23:49:33.106Z,17.85
2022-08-23T23:52:04.675Z,17.81
2022-08-23T23:54:35.592Z,17.75
2022-08-23T23:57:05.755Z,17.79
2022-08-23T23:59:34.613Z,17.83
